Time;durP1;ratioP1;P1;durP2;ratioP2;P2;SDS_P1;SDS_P2;PMS_P1;PMS_P2;Temp;Humidity;BMP_temperature;BMP_pressure;BME280_temperature;BME280_humidity;BME280_pressure;Samples;Min_cycle;Max_cycle;Signal;HPM_P1;HPM_P2
2023/09/09 00:03:19;;;;;;;3.83;2.75;;;;;;;24.85;63.94;100063.41;10417223;28;96954;-82
2023/09/09 00:08:23;;;;;;;7.57;3.35;;;;;;;24.59;65.72;100076.81;10400239;28;96896;-83
2023/09/09 00:13:26;;;;;;;5.60;3.23;;;;;;;24.40;67.26;100082.34;10417642;27;96884;-82
2023/09/09 00:18:31;;;;;;;5.00;2.87;;;;;;;24.45;67.21;100108.78;10397944;27;97040;-86
2023/09/09 00:23:34;;;;;;;5.18;3.35;;;;;;;24.41;67.56;100110.09;10379549;28;98418;-83
2023/09/09 00:28:38;;;;;;;4.75;2.67;;;;;;;24.01;69.45;100107.75;10374320;28;96839;-83
2023/09/09 00:33:43;;;;;;;4.37;2.97;;;;;;;24.05;68.88;100095.69;10391885;28;96778;-83
2023/09/09 00:38:47;;;;;;;5.07;2.30;;;;;;;23.89;69.33;100089.28;10374692;28;96830;-83
2023/09/09 00:43:50;;;;;;;3.13;2.05;;;;;;;23.44;71.09;100103.41;10374888;28;98390;-83
2023/09/09 00:48:55;;;;;;;2.30;1.47;;;;;;;23.01;72.38;100119.16;10372045;28;97193;-85
2023/09/09 01:05:20;;;;;;;1.45;0.90;;;;;;;23.08;69.94;100081.84;10408569;27;97918;-83
2023/09/09 01:10:23;;;;;;;1.80;0.98;;;;;;;23.06;70.01;100089.22;10398929;27;96984;-81
2023/09/09 01:15:27;;;;;;;1.40;0.90;;;;;;;22.96;70.53;100072.28;10408958;28;96724;-81
2023/09/09 01:20:36;;;;;;;1.27;0.80;;;;;;;22.81;70.62;100081.75;10398794;28;98656;-82
2023/09/09 01:25:41;;;;;;;2.67;1.00;;;;;;;22.75;70.75;100056.31;10411255;28;96795;-85
2023/09/09 01:30:44;;;;;;;1.23;0.70;;;;;;;22.74;70.68;100062.66;10376339;28;96811;-85
2023/09/09 01:35:48;;;;;;;1.52;0.98;;;;;;;22.80;70.45;100058.59;10386199;28;98815;-84
2023/09/09 01:40:53;;;;;;;2.40;0.80;;;;;;;22.58;70.70;100052.50;10396478;28;96770;-84
2023/09/09 01:45:56;;;;;;;1.55;0.95;;;;;;;22.69;70.67;100050.66;10388554;28;98203;-84
2023/09/09 01:50:59;;;;;;;1.37;0.70;;;;;;;22.76;70.27;100047.28;10398625;28;97513;-83
2023/09/09 01:56:04;;;;;;;1.43;0.70;;;;;;;22.60;70.43;100041.63;10403507;28;98256;-83
2023/09/09 02:01:07;;;;;;;1.35;0.80;;;;;;;22.58;70.59;100051.66;10410497;27;97494;-84
2023/09/09 02:06:11;;;;;;;2.20;0.93;;;;;;;22.74;70.08;100037.66;10419067;27;96887;-82
2023/09/09 02:11:16;;;;;;;1.30;0.80;;;;;;;22.58;70.21;100025.69;10404632;28;97419;-83
2023/09/09 02:16:20;;;;;;;1.92;0.82;;;;;;;22.50;70.98;100041.66;10411797;28;96803;-83
2023/09/09 02:21:23;;;;;;;2.05;0.98;;;;;;;22.29;71.54;100037.41;10408636;28;98928;-82
2023/09/09 02:26:28;;;;;;;1.55;0.90;;;;;;;22.08;72.09;100039.34;10418959;28;96741;-83
2023/09/09 02:31:32;;;;;;;1.80;1.08;;;;;;;22.39;70.93;100027.50;10418371;28;96746;-82
2023/09/09 02:36:35;;;;;;;1.90;0.80;;;;;;;22.40;70.97;100035.41;10414779;28;98579;-81
2023/09/09 02:41:40;;;;;;;1.95;1.00;;;;;;;22.40;70.75;100035.41;10415644;28;96810;-81
2023/09/09 02:46:43;;;;;;;1.08;0.80;;;;;;;22.27;71.21;100026.81;10400548;28;96921;-81
2023/09/09 02:51:46;;;;;;;1.42;1.20;;;;;;;22.27;71.37;100053.63;10409245;28;97778;-82
2023/09/09 02:56:51;;;;;;;0.80;0.55;;;;;;;22.23;71.47;100038.78;10417100;28;96730;-82
2023/09/09 03:01:54;;;;;;;0.82;0.47;;;;;;;22.29;71.08;100024.84;10416910;28;97000;-82
2023/09/09 03:06:58;;;;;;;1.33;0.90;;;;;;;22.34;71.13;100035.13;10412979;28;97590;-81
2023/09/09 03:12:03;;;;;;;1.80;0.83;;;;;;;22.37;70.98;100030.34;10414759;28;98680;-81
2023/09/09 03:17:07;;;;;;;1.05;0.73;;;;;;;22.41;70.96;100033.59;10417455;27;97734;-81
2023/09/09 03:22:10;;;;;;;1.35;0.80;;;;;;;22.15;72.03;100033.28;10420122;28;96795;-84
2023/09/09 03:27:15;;;;;;;2.65;1.00;;;;;;;21.98;72.56;100023.25;10399272;28;97676;-84
2023/09/09 03:32:18;;;;;;;2.67;0.93;;;;;;;22.05;72.57;100034.25;10401464;28;96844;-82
2023/09/09 03:37:21;;;;;;;2.67;0.88;;;;;;;21.95;72.94;100028.00;10416372;28;97741;-84
2023/09/09 03:42:26;;;;;;;2.00;1.30;;;;;;;21.90;72.98;100020.38;10411103;28;96824;-82
2023/09/09 03:47:29;;;;;;;1.65;1.00;;;;;;;21.83;73.47;100008.50;10391804;28;96798;-83
2023/09/09 03:52:32;;;;;;;2.03;1.10;;;;;;;21.90;72.82;100020.38;10421147;28;98137;-83
2023/09/09 03:57:37;;;;;;;3.20;1.00;;;;;;;21.95;72.60;100028.84;10414746;28;96832;-83
2023/09/09 04:02:41;;;;;;;1.38;1.00;;;;;;;21.79;73.32;100025.84;10420914;28;97022;-82
2023/09/09 04:07:44;;;;;;;1.67;1.03;;;;;;;21.80;73.28;100030.22;10402019;27;96823;-83
2023/09/09 04:12:49;;;;;;;1.17;0.97;;;;;;;21.71;73.84;100019.50;10413982;28;97144;-83
2023/09/09 04:17:52;;;;;;;3.25;1.10;;;;;;;21.85;72.94;100030.66;10403612;28;96811;-83
2023/09/09 04:22:56;;;;;;;1.93;1.20;;;;;;;21.78;73.03;100017.97;10398097;28;97186;-84
2023/09/09 04:28:00;;;;;;;3.25;1.40;;;;;;;21.84;72.83;100026.28;10412588;27;96843;-83
2023/09/09 04:33:04;;;;;;;2.55;1.40;;;;;;;21.81;72.99;100021.22;10407846;28;96908;-83
2023/09/09 04:38:09;;;;;;;3.03;1.20;;;;;;;21.87;72.80;100028.69;10404890;28;96920;-83
2023/09/09 04:43:13;;;;;;;1.90;1.20;;;;;;;21.76;73.32;100010.03;10417057;28;96813;-83
2023/09/09 04:48:17;;;;;;;2.25;1.20;;;;;;;21.80;73.22;100008.78;10418839;27;97648;-83
2023/09/09 04:53:20;;;;;;;2.67;1.33;;;;;;;21.88;73.12;100013.47;10406619;28;96751;-83
2023/09/09 04:58:25;;;;;;;1.98;1.33;;;;;;;21.94;72.68;100010.22;10417014;28;96994;-83
2023/09/09 05:03:29;;;;;;;2.15;1.10;;;;;;;21.81;73.09;100013.19;10421711;28;96887;-83
2023/09/09 05:08:32;;;;;;;3.92;1.50;;;;;;;21.90;73.52;100016.84;10394840;28;96761;-83
2023/09/09 05:13:37;;;;;;;2.00;1.13;;;;;;;21.85;73.30;100014.56;10419649;28;97154;-84
2023/09/09 05:18:40;;;;;;;3.15;1.50;;;;;;;21.86;73.37;100024.31;10421411;28;97212;-84
2023/09/09 05:23:43;;;;;;;2.28;1.30;;;;;;;21.94;72.89;100015.56;10408170;28;98497;-84
2023/09/09 05:28:48;;;;;;;2.13;1.30;;;;;;;21.75;73.39;100024.44;10406017;28;98547;-83
2023/09/09 05:33:51;;;;;;;3.28;1.55;;;;;;;21.74;73.65;100029.91;10407170;28;96803;-83
2023/09/09 05:38:59;;;;;;;1.63;0.93;;;;;;;21.83;73.46;100037.16;10414377;27;96808;-84
2023/09/09 05:44:04;;;;;;;3.53;1.50;;;;;;;21.68;73.53;100035.81;10414324;28;96970;-83
2023/09/09 05:49:08;;;;;;;1.63;1.20;;;;;;;21.68;73.86;100033.13;10426640;28;97086;-84
2023/09/09 05:54:11;;;;;;;2.50;1.50;;;;;;;21.73;73.51;100041.63;10399548;28;98670;-83
2023/09/09 05:59:16;;;;;;;2.03;1.35;;;;;;;21.60;74.39;100049.91;10418168;28;98392;-84
2023/09/09 06:04:20;;;;;;;2.53;1.42;;;;;;;21.53;74.47;100062.13;10422521;28;97745;-84
2023/09/09 06:09:23;;;;;;;1.87;1.30;;;;;;;21.63;74.57;100062.16;10418866;28;98487;-83
2023/09/09 06:14:28;;;;;;;3.20;1.60;;;;;;;21.61;74.37;100067.66;10414957;28;96862;-83
2023/09/09 06:19:31;;;;;;;1.67;1.20;;;;;;;21.62;74.21;100069.38;10408700;28;96855;-84
2023/09/09 06:24:34;;;;;;;2.88;1.73;;;;;;;21.61;74.22;100067.66;10417191;28;96944;-83
2023/09/09 06:29:39;;;;;;;2.47;1.60;;;;;;;21.65;74.44;100058.38;10410386;28;96789;-83
2023/09/09 06:34:43;;;;;;;2.97;1.60;;;;;;;21.81;73.82;100050.69;10412606;28;96769;-81
2023/09/09 06:39:46;;;;;;;3.30;1.67;;;;;;;21.88;73.66;100062.56;10405727;28;98662;-79
2023/09/09 06:44:51;;;;;;;2.35;1.23;;;;;;;21.92;73.80;100060.41;10418426;28;96704;-82
2023/09/09 06:49:54;;;;;;;2.85;1.48;;;;;;;21.96;73.80;100057.34;10413745;28;96787;-81
2023/09/09 06:54:57;;;;;;;2.35;1.25;;;;;;;22.19;73.35;100063.34;10419523;28;96853;-79
2023/09/09 07:00:04;;;;;;;2.42;1.40;;;;;;;22.10;73.44;100062.34;10404196;28;96920;-79
2023/09/09 07:05:08;;;;;;;2.80;1.63;;;;;;;22.33;73.15;100061.09;10399941;27;96909;-81
2023/09/09 07:10:12;;;;;;;3.08;1.90;;;;;;;22.31;73.20;100062.25;10412147;28;96767;-79
2023/09/09 07:15:17;;;;;;;3.13;1.85;;;;;;;22.24;73.33;100075.34;10415978;28;96873;-79
2023/09/09 07:20:20;;;;;;;3.55;1.80;;;;;;;22.31;73.44;100073.81;10423186;28;97393;-79
2023/09/09 07:25:23;;;;;;;3.42;1.85;;;;;;;22.31;73.64;100063.09;10412032;28;96803;-78
2023/09/09 07:30:28;;;;;;;2.67;1.90;;;;;;;22.31;73.88;100071.13;10408629;28;97690;-79
2023/09/09 07:35:35;;;;;;;3.47;2.15;;;;;;;22.19;74.79;100072.25;10415369;28;96897;-77
2023/09/09 07:40:38;;;;;;;4.28;1.90;;;;;;;22.13;74.37;100070.09;10405771;28;96755;-79
2023/09/09 07:45:49;;;;;;;3.08;1.67;;;;;;;22.11;75.15;100061.34;10413276;28;96754;-77
2023/09/09 07:50:54;;;;;;;3.40;2.13;;;;;;;22.32;74.92;100070.13;10401330;28;96918;-78
2023/09/09 07:55:58;;;;;;;5.65;2.35;;;;;;;22.38;74.42;100060.69;10408133;28;96840;-81
2023/09/09 08:01:05;;;;;;;4.60;2.20;;;;;;;22.43;74.07;100063.78;10402154;27;96744;-78
2023/09/09 08:06:08;;;;;;;4.40;2.88;;;;;;;22.44;74.66;100063.66;10402663;28;97259;-77
2023/09/09 08:11:13;;;;;;;4.45;2.75;;;;;;;22.37;74.59;100062.50;10416034;28;97636;-77
2023/09/09 08:16:17;;;;;;;4.40;2.40;;;;;;;22.66;73.95;100053.63;10405415;28;96879;-77
2023/09/09 08:21:21;;;;;;;4.25;2.60;;;;;;;22.93;73.79;100069.88;10420353;28;96820;-77
2023/09/09 08:26:25;;;;;;;3.08;2.05;;;;;;;22.96;73.85;100081.19;10417795;28;96892;-78
2023/09/09 08:31:29;;;;;;;3.00;2.03;;;;;;;22.93;73.88;100102.94;10418506;28;97034;-77
2023/09/09 08:36:33;;;;;;;4.53;2.67;;;;;;;22.95;73.52;100100.09;10407757;28;96713;-77
2023/09/09 08:41:49;;;;;;;4.13;2.70;;;;;;;23.31;72.29;100110.94;10420608;28;96699;-77
2023/09/09 08:46:55;;;;;;;6.35;3.13;;;;;;;23.05;72.52;100114.38;10406448;27;96846;-78
2023/09/09 08:52:04;;;;;;;5.80;2.80;;;;;;;23.06;72.53;100118.75;10402986;28;96839;-79
2023/09/09 08:57:07;;;;;;;4.22;2.22;;;;;;;22.98;72.89;100124.81;10412218;28;96969;-83
2023/09/09 09:02:12;;;;;;;5.30;3.07;;;;;;;23.20;72.14;100137.94;10414702;28;97120;-76
2023/09/09 09:07:17;;;;;;;5.03;2.92;;;;;;;23.42;71.43;100142.97;10397341;28;96982;-73
2023/09/09 09:12:20;;;;;;;4.03;2.75;;;;;;;23.50;71.47;100140.44;10397479;28;99192;-74
2023/09/09 09:17:26;;;;;;;4.70;3.17;;;;;;;24.03;70.76;100127.25;10402935;27;96829;-74
2023/09/09 09:22:31;;;;;;;4.57;3.05;;;;;;;23.91;70.75;100123.06;10415438;28;98564;-74
2023/09/09 09:27:40;;;;;;;5.70;3.10;;;;;;;24.06;70.10;100102.78;10420369;28;96879;-74
2023/09/09 09:32:44;;;;;;;4.72;2.95;;;;;;;24.15;69.46;100118.00;10422965;28;96768;-75
2023/09/09 09:37:51;;;;;;;4.80;2.90;;;;;;;24.63;68.09;100123.97;10415786;28;97858;-74
2023/09/09 09:42:55;;;;;;;4.18;2.83;;;;;;;25.00;67.17;100131.06;10419770;28;96778;-75
2023/09/09 09:48:00;;;;;;;14.25;8.38;;;;;;;26.59;64.91;100133.00;10406303;28;96843;-75
2023/09/09 09:53:05;;;;;;;5.22;3.70;;;;;;;26.34;65.96;100130.38;10406684;28;96722;-74
2023/09/09 09:58:08;;;;;;;5.70;3.58;;;;;;;25.59;68.13;100140.09;10404329;28;96805;-75
2023/09/09 10:03:15;;;;;;;4.85;3.03;;;;;;;25.37;68.32;100132.53;10444723;27;96832;-74
2023/09/09 10:08:25;;;;;;;4.65;3.20;;;;;;;24.77;69.56;100142.25;10416101;27;98835;-74
2023/09/09 10:13:36;;;;;;;6.43;3.47;;;;;;;24.99;68.35;100143.66;10399171;28;97633;-74
2023/09/09 10:18:43;;;;;;;4.40;2.40;;;;;;;25.34;67.24;100124.78;10420534;28;97762;-74
2023/09/09 10:23:47;;;;;;;4.10;2.45;;;;;;;25.45;66.77;100137.16;10416861;27;96812;-74
2023/09/09 10:28:51;;;;;;;4.20;2.90;;;;;;;25.56;66.29;100139.56;10403121;28;98460;-75
2023/09/09 10:33:58;;;;;;;4.32;2.65;;;;;;;25.75;65.40;100132.16;10408894;27;97692;-75
2023/09/09 10:39:02;;;;;;;4.63;2.95;;;;;;;26.36;64.67;100129.25;10415127;27;96810;-75
2023/09/09 10:44:05;;;;;;;3.80;2.67;;;;;;;26.71;64.19;100134.41;10416898;27;96801;-75
2023/09/09 10:49:15;;;;;;;4.05;2.20;;;;;;;27.60;60.50;100129.00;10392129;28;97439;-79
2023/09/09 10:54:19;;;;;;;3.40;2.08;;;;;;;27.52;61.66;100121.75;10419586;28;96716;-75
2023/09/09 10:59:25;;;;;;;6.40;3.70;;;;;;;27.78;61.18;100111.59;10386679;28;96811;-75
2023/09/09 11:04:30;;;;;;;4.63;2.42;;;;;;;28.75;58.75;100106.56;10393904;28;98156;-75
2023/09/09 11:09:34;;;;;;;6.28;3.22;;;;;;;29.40;57.26;100106.88;10396113;28;98348;-75
2023/09/09 11:14:38;;;;;;;3.28;2.08;;;;;;;30.75;53.46;100096.44;10389415;28;96868;-75
2023/09/09 11:19:43;;;;;;;2.80;1.55;;;;;;;31.44;50.38;100098.34;10384768;28;96593;-75
2023/09/09 11:24:47;;;;;;;2.20;1.45;;;;;;;32.41;48.25;100105.44;10418853;28;96743;-75
2023/09/09 11:29:51;;;;;;;1.05;0.70;;;;;;;33.13;43.71;100108.34;10410594;27;96798;-76
2023/09/09 11:34:58;;;;;;;1.88;1.17;;;;;;;32.65;41.37;100095.88;10393292;27;97263;-75
2023/09/09 11:40:01;;;;;;;1.30;0.73;;;;;;;33.46;39.04;100101.88;10416596;28;97141;-75
2023/09/09 11:45:18;;;;;;;1.40;0.77;;;;;;;34.24;36.16;100083.63;10406642;28;96905;-76
2023/09/09 11:50:22;;;;;;;1.58;0.98;;;;;;;34.70;36.81;100081.50;10404149;28;97395;-75
2023/09/09 11:55:26;;;;;;;1.42;0.55;;;;;;;33.31;38.84;100084.81;10400745;28;98598;-75
2023/09/09 12:00:29;;;;;;;1.85;0.70;;;;;;;32.20;39.83;100072.84;10411018;28;97157;-75
2023/09/09 12:05:35;;;;;;;1.25;0.60;;;;;;;31.88;40.16;100077.09;10422326;28;96887;-75
2023/09/09 12:10:39;;;;;;;0.85;0.52;;;;;;;31.15;40.75;100074.00;10414599;28;96833;-79
2023/09/09 12:15:43;;;;;;;1.00;0.50;;;;;;;29.67;42.35;100070.19;10407295;28;98849;-75
2023/09/09 12:21:08;;;;;;;1.73;0.70;;;;;;;29.42;43.50;100068.72;10407715;28;96880;-75
2023/09/09 12:26:13;;;;;;;1.00;0.63;;;;;;;28.88;45.06;100073.44;10407962;28;97748;-74
2023/09/09 12:31:16;;;;;;;0.88;0.50;;;;;;;29.42;44.04;100076.84;10404901;28;98396;-75
2023/09/09 12:36:22;;;;;;;;;;;;;;;27.56;47.36;100077.13;10408380;28;97626;-75
2023/09/09 12:41:25;;;;;;;1.17;0.60;;;;;;;27.36;48.28;100086.63;10410247;28;98674;-75
2023/09/09 12:46:29;;;;;;;1.00;0.60;;;;;;;28.45;47.45;100087.63;10398543;28;96895;-76
2023/09/09 12:51:35;;;;;;;0.50;0.40;;;;;;;30.43;43.86;100096.88;10410312;28;98809;-77
2023/09/09 12:56:38;;;;;;;1.33;0.60;;;;;;;31.65;41.24;100081.94;10413729;28;98798;-74
2023/09/09 13:01:42;;;;;;;0.70;0.57;;;;;;;30.73;42.34;100066.72;10412172;28;96855;-75
2023/09/09 13:06:46;;;;;;;1.05;0.50;;;;;;;31.16;42.40;100046.66;10404035;28;97424;-75
2023/09/09 13:11:50;;;;;;;1.15;0.45;;;;;;;31.56;40.94;100050.53;10411087;28;98676;-75
2023/09/09 13:16:53;;;;;;;1.35;0.77;;;;;;;30.20;44.83;100046.28;10413469;28;96838;-75
2023/09/09 13:21:59;;;;;;;1.77;0.63;;;;;;;29.84;44.95;100064.38;10393750;28;97088;-76
2023/09/09 13:27:02;;;;;;;2.10;1.00;;;;;;;27.91;50.06;100070.44;10410776;28;97120;-77
2023/09/09 13:32:07;;;;;;;2.28;1.13;;;;;;;27.08;52.51;100084.50;10264991;22;97079;-75
2023/09/09 13:37:12;;;;;;;1.17;0.70;;;;;;;26.90;52.80;100084.63;10249007;28;96893;-75
2023/09/09 13:42:15;;;;;;;1.50;0.75;;;;;;;25.40;56.45;100110.66;10253123;28;96737;-76
2023/09/09 13:47:18;;;;;;;1.48;0.70;;;;;;;24.58;59.45;100157.72;10250050;28;98738;-78
2023/09/09 13:52:23;;;;;;;1.30;0.90;;;;;;;24.16;61.99;100170.78;10251526;28;97070;-77
2023/09/09 13:57:26;;;;;;;2.53;1.30;;;;;;;24.17;62.71;100199.34;10225591;28;98477;-80
2023/09/09 14:02:29;;;;;;;2.53;1.10;;;;;;;23.83;64.89;100233.16;10258700;28;96920;-78
2023/09/09 14:07:34;;;;;;;2.80;1.07;;;;;;;23.68;64.86;100245.38;10260051;28;97987;-79
2023/09/09 14:12:41;;;;;;;1.10;0.70;;;;;;;23.69;65.79;100249.72;10260564;28;97151;-79
2023/09/09 14:17:45;;;;;;;1.60;0.85;;;;;;;23.53;66.75;100238.69;10260004;28;96576;-80
2023/09/09 14:22:50;;;;;;;1.67;0.83;;;;;;;23.68;65.79;100242.69;10260321;28;97171;-80
2023/09/09 14:27:53;;;;;;;1.45;0.82;;;;;;;23.56;66.84;100246.50;10233317;28;96839;-79
2023/09/09 14:32:56;;;;;;;1.97;1.00;;;;;;;23.70;66.78;100230.78;10259172;28;96817;-78
2023/09/09 14:38:02;;;;;;;1.42;0.77;;;;;;;23.79;66.79;100244.34;10260154;28;97155;-79
2023/09/09 14:43:05;;;;;;;1.42;0.60;;;;;;;23.51;66.53;100244.19;10260495;28;96615;-80
2023/09/09 14:48:13;;;;;;;1.33;0.67;;;;;;;23.53;66.52;100241.38;10260422;28;97395;-80
2023/09/09 14:53:18;;;;;;;0.98;0.50;;;;;;;23.74;65.89;100244.78;10258684;28;96911;-76
2023/09/09 14:58:22;;;;;;;0.80;0.50;;;;;;;23.58;66.85;100244.50;10252874;28;98772;-77
2023/09/09 15:03:25;;;;;;;1.85;0.60;;;;;;;23.63;67.07;100243.09;10258806;28;96889;-77
2023/09/09 15:08:30;;;;;;;0.93;0.30;;;;;;;23.90;66.87;100241.47;10259830;28;96740;-77
2023/09/09 15:13:34;;;;;;;1.33;0.40;;;;;;;24.27;65.56;100220.84;10256596;28;98596;-78
2023/09/09 15:18:38;;;;;;;2.00;0.43;;;;;;;24.59;64.87;100227.50;10254321;28;96861;-82
2023/09/09 15:23:44;;;;;;;1.25;0.55;;;;;;;24.32;65.58;100234.72;10258806;28;97150;-79
2023/09/09 15:28:48;;;;;;;0.77;0.40;;;;;;;24.13;66.51;100227.56;10257487;28;97047;-85
2023/09/09 15:33:51;;;;;;;9.33;6.13;;;;;;;23.97;67.00;100223.78;10259049;28;98127;-81
2023/09/09 15:38:56;;;;;;;0.97;0.50;;;;;;;23.99;67.32;100219.09;10257888;28;96890;-81
2023/09/09 15:43:59;;;;;;;1.08;0.47;;;;;;;24.04;67.47;100225.75;10258628;28;97298;-79
2023/09/09 15:49:02;;;;;;;2.33;0.70;;;;;;;23.86;68.57;100224.78;10251483;28;96865;-82
2023/09/09 15:54:07;;;;;;;2.67;1.67;;;;;;;23.79;69.53;100220.16;10253778;28;97504;-84
2023/09/09 15:59:11;;;;;;;1.38;0.98;;;;;;;24.04;68.44;100231.13;10248057;28;98362;-84
2023/09/09 16:04:14;;;;;;;3.30;0.87;;;;;;;24.07;68.59;100236.19;10257274;28;97243;-87
2023/09/09 16:09:19;;;;;;;1.07;0.70;;;;;;;24.00;68.50;100245.00;10254079;28;96733;-85
2023/09/09 16:14:22;;;;;;;1.75;0.73;;;;;;;24.39;67.91;100235.84;10259035;28;96909;-86
2023/09/09 16:19:26;;;;;;;7.18;4.10;;;;;;;24.21;68.26;100230.34;10256879;28;96830;-78
2023/09/09 16:24:31;;;;;;;18.20;7.18;;;;;;;24.15;68.50;100235.47;10257349;28;96830;-81
2023/09/09 16:29:34;;;;;;;4.28;2.00;;;;;;;23.86;69.54;100235.56;10256682;28;97221;-86
2023/09/09 16:34:38;;;;;;;3.07;1.27;;;;;;;23.88;69.51;100230.03;10257139;28;96673;-83
2023/09/09 16:39:42;;;;;;;2.73;1.10;;;;;;;23.73;69.88;100223.41;10251800;28;97437;-88
2023/09/09 16:44:46;;;;;;;1.90;0.85;;;;;;;23.63;70.13;100210.03;10255679;28;96666;-87
2023/09/09 16:49:50;;;;;;;2.90;0.93;;;;;;;23.61;70.09;100215.50;10256820;28;96828;-86
2023/09/09 16:54:55;;;;;;;2.20;0.95;;;;;;;23.76;69.62;100225.81;10256579;28;96794;-86
2023/09/09 16:59:59;;;;;;;1.30;0.90;;;;;;;24.00;69.11;100239.59;10255465;28;96909;-80
2023/09/09 17:05:02;;;;;;;2.37;1.27;;;;;;;24.13;69.04;100230.25;10255381;28;98456;-80
2023/09/09 17:10:08;;;;;;;2.03;0.80;;;;;;;24.25;68.47;100229.06;10255907;28;96604;-80
2023/09/09 17:15:12;;;;;;;1.83;1.00;;;;;;;24.23;69.03;100236.44;10256449;28;97216;-79
2023/09/09 17:20:17;;;;;;;2.70;1.30;;;;;;;24.32;68.54;100235.59;10255492;28;96854;-80
2023/09/09 17:25:22;;;;;;;1.75;1.00;;;;;;;24.44;68.09;100239.78;10254736;28;96817;-79
2023/09/09 17:30:27;;;;;;;3.53;1.92;;;;;;;24.43;68.52;100242.59;10248040;28;96945;-78
2023/09/09 17:35:31;;;;;;;2.63;1.10;;;;;;;24.20;69.11;100252.00;10257875;28;96775;-79
2023/09/09 17:40:35;;;;;;;2.47;1.03;;;;;;;24.20;69.18;100247.50;10261557;28;96832;-77
2023/09/09 17:45:39;;;;;;;3.00;1.70;;;;;;;24.25;69.67;100238.97;10255182;28;98530;-77
2023/09/09 17:50:42;;;;;;;7.87;4.77;;;;;;;24.25;70.01;100233.59;10259339;28;96891;-78
2023/09/09 17:55:47;;;;;;;6.17;3.93;;;;;;;24.05;70.44;100243.56;10261252;28;97459;-77
2023/09/09 18:00:50;;;;;;;8.30;4.55;;;;;;;23.98;70.68;100253.19;10260324;28;97006;-77
2023/09/09 18:05:57;;;;;;;8.93;5.10;;;;;;;23.87;70.90;100260.59;10261499;28;96731;-76
2023/09/09 18:11:06;;;;;;;16.67;9.95;;;;;;;23.86;70.55;100259.75;10257462;28;98540;-76
2023/09/09 18:16:12;;;;;;;15.20;8.07;;;;;;;23.91;70.12;100267.38;10253151;28;98623;-78
2023/09/09 18:21:15;;;;;;;9.53;5.80;;;;;;;23.79;70.43;100269.38;10257714;28;96834;-81
2023/09/09 18:26:20;;;;;;;9.30;4.63;;;;;;;23.52;70.99;100278.16;10257437;28;96889;-77
2023/09/09 18:31:23;;;;;;;7.32;4.55;;;;;;;23.40;71.04;100289.16;10256274;28;97280;-76
2023/09/09 18:36:27;;;;;;;9.23;4.68;;;;;;;23.22;71.27;100280.97;10259728;28;96638;-77
2023/09/09 18:41:32;;;;;;;7.60;4.80;;;;;;;23.15;71.31;100278.97;10251934;28;99014;-78
2023/09/09 18:46:35;;;;;;;4.75;2.95;;;;;;;23.02;71.42;100297.19;10254838;28;97805;-78
2023/09/09 18:51:39;;;;;;;8.00;3.97;;;;;;;22.93;71.79;100314.09;10258659;28;98733;-78
2023/09/09 18:56:44;;;;;;;8.00;3.45;;;;;;;23.00;71.78;100328.69;10256640;28;96978;-78
2023/09/09 19:01:51;;;;;;;4.47;2.50;;;;;;;22.95;72.24;100333.59;10254740;28;97651;-78
2023/09/09 19:06:55;;;;;;;5.95;3.50;;;;;;;22.89;72.40;100342.22;10254879;28;96831;-78
2023/09/09 19:12:00;;;;;;;12.70;6.95;;;;;;;22.78;73.06;100348.53;10253821;28;98825;-78
2023/09/09 19:17:04;;;;;;;12.82;6.85;;;;;;;22.89;72.44;100358.31;10257537;28;97345;-78
2023/09/09 19:22:07;;;;;;;8.90;5.13;;;;;;;22.86;72.69;100366.63;10254060;28;96937;-78
2023/09/09 19:27:12;;;;;;;12.73;6.20;;;;;;;22.71;72.75;100381.38;10256517;28;97261;-78
2023/09/09 19:32:15;;;;;;;11.23;5.93;;;;;;;22.67;72.98;100385.28;10250844;28;98556;-78
2023/09/09 19:37:19;;;;;;;8.20;4.40;;;;;;;22.64;73.16;100379.19;10258237;28;96915;-78
2023/09/09 19:42:24;;;;;;;8.05;4.13;;;;;;;22.71;72.60;100381.38;10254942;28;97305;-77
2023/09/09 19:47:28;;;;;;;7.60;4.55;;;;;;;22.63;72.74;100391.94;10254719;28;97116;-77
2023/09/09 19:52:31;;;;;;;6.75;3.33;;;;;;;22.44;73.44;100396.19;10253321;28;97044;-76
2023/09/09 19:57:36;;;;;;;3.45;1.77;;;;;;;22.32;73.53;100413.34;10255069;28;96937;-78
2023/09/09 20:02:40;;;;;;;6.45;3.42;;;;;;;22.20;74.12;100409.03;10252809;28;97168;-77
2023/09/09 20:07:43;;;;;;;6.17;2.77;;;;;;;22.29;73.97;100426.16;10256414;28;96961;-79
2023/09/09 20:12:48;;;;;;;4.60;2.80;;;;;;;22.25;73.59;100428.25;10255362;28;97020;-78
2023/09/09 20:17:51;;;;;;;4.70;3.00;;;;;;;22.07;74.43;100431.63;10256213;28;96877;-77
2023/09/09 20:22:54;;;;;;;6.60;3.40;;;;;;;22.00;74.50;100431.31;10254539;28;98499;-77
2023/09/09 20:28:00;;;;;;;6.68;3.33;;;;;;;22.01;74.39;100424.94;10252847;28;98557;-76
2023/09/09 20:33:04;;;;;;;4.35;3.10;;;;;;;22.06;74.03;100428.09;10253472;28;96825;-77
2023/09/09 20:38:09;;;;;;;7.25;4.15;;;;;;;21.94;74.75;100429.09;10251316;28;97105;-78
2023/09/09 20:43:14;;;;;;;8.50;4.50;;;;;;;21.99;74.43;100426.91;10244766;28;98730;-77
2023/09/09 20:48:17;;;;;;;6.78;3.67;;;;;;;21.95;74.17;100430.78;10253157;28;96762;-77
2023/09/09 20:53:21;;;;;;;6.80;3.22;;;;;;;21.85;74.44;100439.75;10253613;28;96765;-78
2023/09/09 20:58:26;;;;;;;7.28;4.03;;;;;;;21.93;74.28;100445.31;10254675;28;98249;-77
2023/09/09 21:03:29;;;;;;;8.38;4.57;;;;;;;21.98;73.75;100437.72;10255493;28;96981;-76
2023/09/09 21:08:33;;;;;;;9.50;4.53;;;;;;;22.00;73.60;100441.16;10258100;28;97220;-77
2023/09/09 21:13:37;;;;;;;6.90;3.67;;;;;;;21.98;73.85;100440.41;10263349;28;96825;-77
2023/09/09 21:18:42;;;;;;;8.32;4.00;;;;;;;21.90;73.71;100446.38;10262428;28;96587;-77
2023/09/09 21:23:46;;;;;;;6.78;3.72;;;;;;;21.80;73.87;100445.47;10261543;28;96826;-77
2023/09/09 21:28:51;;;;;;;7.60;4.22;;;;;;;21.65;74.66;100443.19;10261780;28;96839;-77
2023/09/09 21:33:55;;;;;;;8.57;4.05;;;;;;;21.59;74.45;100444.53;10260860;28;96831;-74
2023/09/09 21:38:58;;;;;;;9.38;4.13;;;;;;;21.56;74.28;100450.16;10261128;28;97395;-77
2023/09/09 21:44:03;;;;;;;6.30;3.38;;;;;;;21.54;74.43;100441.41;10261345;28;96781;-77
2023/09/09 21:49:07;;;;;;;11.02;4.70;;;;;;;21.37;74.60;100453.50;10260526;28;97254;-77
2023/09/09 21:54:10;;;;;;;12.52;6.10;;;;;;;21.11;75.25;100444.00;10261416;28;96818;-77
2023/09/09 21:59:15;;;;;;;10.90;5.40;;;;;;;21.23;74.50;100444.84;10236457;28;96869;-77
2023/09/09 22:04:18;;;;;;;10.63;4.80;;;;;;;21.13;74.98;100444.72;10257947;28;96751;-77
2023/09/09 22:09:22;;;;;;;9.82;5.20;;;;;;;20.96;75.43;100445.22;10261067;28;96804;-77
2023/09/09 22:14:27;;;;;;;11.23;5.43;;;;;;;21.01;75.31;100439.50;10257248;28;96995;-77
2023/09/09 22:19:30;;;;;;;9.88;5.57;;;;;;;21.16;74.58;100439.16;10251028;28;97653;-77
2023/09/09 22:24:33;;;;;;;8.35;4.63;;;;;;;21.11;74.69;100433.28;10258056;28;98459;-77
2023/09/09 22:29:38;;;;;;;8.60;4.40;;;;;;;21.13;74.43;100426.00;10255582;28;96828;-76
2023/09/09 22:34:41;;;;;;;5.25;3.17;;;;;;;21.01;74.60;100426.97;10257665;28;96838;-77
2023/09/09 22:39:45;;;;;;;5.13;2.42;;;;;;;21.05;74.63;100420.38;10259971;28;96725;-77
2023/09/09 22:44:50;;;;;;;5.05;3.25;;;;;;;20.91;75.09;100419.78;10260174;28;97308;-77
2023/09/09 22:49:53;;;;;;;7.68;3.30;;;;;;;20.98;74.76;100429.03;10259850;28;96817;-77
2023/09/09 22:54:57;;;;;;;7.10;3.47;;;;;;;20.90;75.09;100410.91;10258409;28;96913;-77
2023/09/09 23:00:04;;;;;;;6.55;3.38;;;;;;;20.85;74.90;100413.09;10258732;28;96825;-77
2023/09/09 23:05:08;;;;;;;5.97;3.08;;;;;;;20.99;74.70;100412.00;10254860;28;97728;-77
2023/09/09 23:10:12;;;;;;;7.28;3.45;;;;;;;20.85;74.77;100413.09;10252370;28;98561;-77
2023/09/09 23:15:17;;;;;;;4.60;2.35;;;;;;;20.88;74.79;100409.34;10250494;28;97102;-77
2023/09/09 23:20:21;;;;;;;4.95;2.35;;;;;;;20.81;75.04;100408.97;10256898;28;97447;-77
2023/09/09 23:25:24;;;;;;;6.35;2.65;;;;;;;20.95;74.67;100419.41;10253306;28;98843;-77
2023/09/09 23:30:29;;;;;;;5.57;2.60;;;;;;;20.62;75.55;100406.03;10253637;28;98843;-77